Time;durP1;ratioP1;P1;durP2;ratioP2;P2;SDS_P1;SDS_P2;PMS_P1;PMS_P2;Temp;Humidity;BMP_temperature;BMP_pressure;BME280_temperature;BME280_humidity;BME280_pressure;Samples;Min_cycle;Max_cycle;Signal;HPM_P1;HPM_P2
2020/12/11 00:02:24;;;;;;;23.05;14.68;;;6.80;99.90;;;;;;5078869;28;20032;-77
2020/12/11 00:04:50;;;;;;;23.70;15.30;;;6.80;99.90;;;;;;5066640;28;20081;-77
2020/12/11 00:07:15;;;;;;;22.85;13.70;;;6.70;99.90;;;;;;5075469;28;20046;-77
2020/12/11 00:09:41;;;;;;;21.20;14.68;;;6.70;99.90;;;;;;5075653;28;20034;-77
2020/12/11 00:12:07;;;;;;;22.77;13.50;;;6.70;99.90;;;;;;5094503;28;20112;-77
2020/12/11 00:14:32;;;;;;;23.85;14.07;;;6.70;99.90;;;;;;5094107;28;20502;-77
2020/12/11 00:16:58;;;;;;;23.85;15.45;;;6.70;99.90;;;;;;5093118;28;20032;-77
2020/12/11 00:19:24;;;;;;;19.30;13.32;;;6.70;99.90;;;;;;5093665;28;20067;-77
2020/12/11 00:21:50;;;;;;;20.73;13.45;;;6.70;99.90;;;;;;5075373;28;20028;-77
2020/12/11 00:24:16;;;;;;;22.40;13.70;;;6.70;99.90;;;;;;5075403;28;20054;-77
2020/12/11 00:26:42;;;;;;;18.67;12.95;;;6.70;99.90;;;;;;5075288;28;20483;-77
2020/12/11 00:29:08;;;;;;;20.50;13.32;;;6.70;99.90;;;;;;5093347;28;20035;-77
2020/12/11 00:31:33;;;;;;;23.90;14.15;;;6.60;99.90;;;;;;5093180;28;20028;-77
2020/12/11 00:33:59;;;;;;;26.67;13.45;;;6.60;99.90;;;;;;5093389;28;20036;-77
2020/12/11 00:36:25;;;;;;;25.20;14.63;;;6.60;99.90;;;;;;5094075;28;20475;-77
2020/12/11 00:38:52;;;;;;;22.33;14.32;;;6.60;99.90;;;;;;5075462;28;20085;-77
2020/12/11 00:41:18;;;;;;;20.13;13.25;;;6.60;99.90;;;;;;5094021;28;20036;-77
2020/12/11 00:43:43;;;;;;;19.52;13.43;;;6.70;99.90;;;;;;5075367;28;20118;-77
2020/12/11 00:46:10;;;;;;;23.10;13.95;;;6.60;99.90;;;;;;5093704;28;20111;-77
2020/12/11 00:48:37;;;;;;;19.25;12.45;;;6.60;99.90;;;;;;5093445;28;20082;-77
2020/12/11 00:51:02;;;;;;;18.35;12.57;;;6.60;99.90;;;;;;5075587;28;20371;-77
2020/12/11 00:53:28;;;;;;;21.67;13.45;;;6.60;99.90;;;;;;5093276;28;20020;-77
2020/12/11 00:55:54;;;;;;;23.35;14.45;;;6.60;99.90;;;;;;5075372;28;20031;-77
2020/12/11 00:58:19;;;;;;;20.63;12.45;;;6.50;99.90;;;;;;5075383;28;20040;-77
2020/12/11 01:00:46;;;;;;;19.33;13.10;;;6.50;99.90;;;;;;5093374;28;20118;-77
2020/12/11 01:03:11;;;;;;;21.13;12.93;;;6.50;99.90;;;;;;5093470;28;20429;-77
2020/12/11 01:05:37;;;;;;;19.38;13.00;;;6.50;99.90;;;;;;5075337;28;20082;-77
2020/12/11 01:08:04;;;;;;;18.20;12.60;;;6.50;99.90;;;;;;5075447;28;20030;-77
2020/12/11 01:10:30;;;;;;;16.60;11.40;;;6.50;99.90;;;;;;5093302;28;20021;-77
2020/12/11 01:12:56;;;;;;;21.10;12.75;;;6.50;99.90;;;;;;5075185;28;20067;-77
2020/12/11 01:15:25;;;;;;;18.52;10.73;;;6.50;99.90;;;;;;5093394;28;20480;-77
2020/12/11 01:17:50;;;;;;;16.65;11.48;;;6.50;99.90;;;;;;5075139;28;20031;-77
2020/12/11 01:20:17;;;;;;;15.60;11.07;;;6.40;99.90;;;;;;5093305;28;20028;-77
2020/12/11 01:22:42;;;;;;;16.58;10.68;;;6.40;99.90;;;;;;5092862;28;20063;-77
2020/12/11 01:25:08;;;;;;;18.42;12.10;;;6.40;99.90;;;;;;5075142;28;20058;-77
2020/12/11 01:27:34;;;;;;;19.27;12.25;;;6.40;99.90;;;;;;5093104;28;20028;-77
2020/12/11 01:30:00;;;;;;;15.52;10.85;;;6.30;99.90;;;;;;5075050;28;20444;-77
2020/12/11 01:32:26;;;;;;;15.05;10.55;;;6.40;99.90;;;;;;5092772;28;20012;-77
2020/12/11 01:34:52;;;;;;;17.20;10.00;;;6.40;99.90;;;;;;5093023;28;20027;-77
2020/12/11 01:37:17;;;;;;;16.00;10.75;;;6.40;99.90;;;;;;5093251;28;20499;-77
2020/12/11 01:39:43;;;;;;;16.33;10.52;;;6.40;99.90;;;;;;5092684;28;20044;-77
2020/12/11 01:42:11;;;;;;;15.95;9.80;;;6.30;99.90;;;;;;5092697;28;20479;-77
2020/12/11 01:44:37;;;;;;;15.57;9.63;;;6.30;99.90;;;;;;5093013;28;20043;-77
2020/12/11 01:47:03;;;;;;;14.98;9.57;;;6.30;99.90;;;;;;5074901;28;20025;-77
2020/12/11 01:49:29;;;;;;;15.73;10.48;;;6.30;99.90;;;;;;5092971;28;20016;-77
2020/12/11 01:51:55;;;;;;;15.70;9.60;;;6.40;99.90;;;;;;5092914;28;20505;-77
2020/12/11 01:54:21;;;;;;;14.35;9.60;;;6.30;99.90;;;;;;5092523;28;20103;-77
2020/12/11 01:56:55;;;;;;;13.27;9.25;;;6.30;99.90;;;;;;5074725;28;20103;-77
2020/12/11 01:59:29;;;;;;;12.80;9.20;;;6.20;99.90;;;;;;5092925;28;20035;-77
2020/12/11 02:01:58;;;;;;;15.35;9.80;;;6.20;99.90;;;;;;5092783;28;20487;-77
2020/12/11 02:04:24;;;;;;;14.55;9.27;;;6.30;99.90;;;;;;5092520;28;20076;-77
2020/12/11 02:06:51;;;;;;;15.60;9.77;;;6.30;99.90;;;;;;5092629;28;20020;-77
2020/12/11 02:09:19;;;;;;;13.85;9.57;;;6.30;99.90;;;;;;5074566;28;20364;-77
2020/12/11 02:11:44;;;;;;;14.85;10.13;;;6.30;99.90;;;;;;5092630;28;20008;-77
2020/12/11 02:14:10;;;;;;;13.32;9.52;;;6.30;99.90;;;;;;5074500;28;20030;-77
2020/12/11 02:16:36;;;;;;;16.55;9.98;;;6.30;99.90;;;;;;5092271;28;20024;-77
2020/12/11 02:19:02;;;;;;;15.40;9.07;;;6.20;99.90;;;;;;5092749;28;20027;-77
2020/12/11 02:21:31;;;;;;;14.68;9.93;;;6.20;99.90;;;;;;5092564;28;20032;-77
2020/12/11 02:23:56;;;;;;;15.02;9.98;;;6.10;99.90;;;;;;5078678;28;20391;-77
2020/12/11 02:26:24;;;;;;;14.45;9.90;;;6.10;99.90;;;;;;5078070;28;20028;-77
2020/12/11 02:28:50;;;;;;;12.75;9.20;;;6.10;99.90;;;;;;5078337;28;20387;-77
2020/12/11 02:31:16;;;;;;;13.48;9.68;;;6.10;99.90;;;;;;5096128;28;20023;-77
2020/12/11 02:33:42;;;;;;;12.70;8.65;;;6.00;99.90;;;;;;5096508;28;20024;-77
2020/12/11 02:36:07;;;;;;;11.43;8.10;;;5.90;99.90;;;;;;5096428;28;20032;-77
2020/12/11 02:38:33;;;;;;;12.13;8.50;;;5.90;99.90;;;;;;5096417;28;20028;-77
2020/12/11 02:41:02;;;;;;;12.82;9.23;;;5.90;99.90;;;;;;5095996;28;20104;-77
2020/12/11 02:43:36;;;;;;;15.95;9.65;;;5.90;99.90;;;;;;5096195;28;20150;-77
2020/12/11 02:46:03;;;;;;;12.55;9.10;;;5.90;99.90;;;;;;5096302;28;20478;-77
2020/12/11 02:48:29;;;;;;;13.02;9.60;;;5.90;99.90;;;;;;5095898;28;20369;-77
2020/12/11 02:50:57;;;;;;;14.63;9.95;;;5.90;99.90;;;;;;5096185;28;20158;-77
2020/12/11 02:53:23;;;;;;;16.40;9.88;;;5.90;99.90;;;;;;5096105;28;20040;-77
2020/12/11 02:55:49;;;;;;;15.13;9.38;;;5.90;99.90;;;;;;5096080;28;20031;-77
2020/12/11 02:58:14;;;;;;;12.55;9.15;;;5.80;99.90;;;;;;5095661;28;20016;-77
2020/12/11 03:00:40;;;;;;;12.23;8.70;;;5.90;99.90;;;;;;5095508;28;20111;-77
2020/12/11 03:03:06;;;;;;;13.10;8.27;;;5.80;99.90;;;;;;5057619;28;20033;-77
2020/12/11 03:05:31;;;;;;;14.10;8.82;;;5.80;99.90;;;;;;5081897;28;20170;-77
2020/12/11 03:07:57;;;;;;;12.38;8.57;;;5.70;99.90;;;;;;5095662;28;20052;-77
2020/12/11 03:10:26;;;;;;;14.18;10.18;;;5.70;99.90;;;;;;5095816;28;20027;-77
2020/12/11 03:12:52;;;;;;;16.17;10.07;;;5.70;99.90;;;;;;5095827;28;20103;-77
2020/12/11 03:15:17;;;;;;;13.50;9.00;;;5.70;99.90;;;;;;5095541;28;20103;-77
2020/12/11 03:17:43;;;;;;;13.05;9.13;;;5.70;99.90;;;;;;5095408;28;20031;-77
2020/12/11 03:20:09;;;;;;;13.45;9.20;;;5.70;99.90;;;;;;5095686;28;20024;-77
2020/12/11 03:22:35;;;;;;;13.00;9.27;;;5.70;99.90;;;;;;5095523;28;20074;-77
2020/12/11 03:25:02;;;;;;;14.40;9.35;;;5.80;99.90;;;;;;5095315;28;20020;-77
2020/12/11 03:27:31;;;;;;;14.43;10.32;;;5.70;99.90;;;;;;5077230;28;20020;-77
2020/12/11 03:29:56;;;;;;;14.77;9.85;;;5.70;99.90;;;;;;5077394;28;20035;-77
2020/12/11 03:32:22;;;;;;;16.65;10.50;;;5.70;99.90;;;;;;5077102;28;20020;-77
2020/12/11 03:34:48;;;;;;;14.90;9.75;;;5.80;99.90;;;;;;5095302;28;20153;-77
2020/12/11 03:37:15;;;;;;;19.85;10.45;;;5.70;99.90;;;;;;5076809;28;20032;-77
2020/12/11 03:39:42;;;;;;;12.43;8.60;;;5.80;99.90;;;;;;5073403;28;20416;-77
2020/12/11 03:42:08;;;;;;;15.80;9.70;;;5.80;99.90;;;;;;5073583;28;20102;-77
2020/12/11 03:44:34;;;;;;;16.25;10.73;;;5.80;99.90;;;;;;5073266;28;20078;-77
2020/12/11 03:46:59;;;;;;;13.77;9.85;;;5.80;99.90;;;;;;5074821;28;20036;-77
2020/12/11 03:49:25;;;;;;;13.77;9.10;;;5.80;99.90;;;;;;5074768;28;20056;-77
2020/12/11 03:51:54;;;;;;;15.80;9.65;;;5.80;99.90;;;;;;5073376;28;20372;-77
2020/12/11 03:54:20;;;;;;;16.83;10.48;;;5.90;99.90;;;;;;5074495;28;20028;-77
2020/12/11 03:56:48;;;;;;;17.20;10.20;;;5.90;99.90;;;;;;5074809;28;20027;-77
2020/12/11 03:59:14;;;;;;;17.73;11.18;;;5.90;99.90;;;;;;5074670;28;20021;-77
2020/12/11 04:01:40;;;;;;;16.52;10.98;;;5.90;99.90;;;;;;5074494;28;20503;-77
2020/12/11 04:04:07;;;;;;;15.32;10.27;;;6.00;99.90;;;;;;5072849;28;20416;-77
2020/12/11 04:06:33;;;;;;;15.45;10.27;;;6.00;99.90;;;;;;5074505;28;20092;-77
2020/12/11 04:08:59;;;;;;;16.80;10.52;;;6.10;99.90;;;;;;5074482;28;20025;-77
2020/12/11 04:11:25;;;;;;;15.13;10.63;;;6.10;99.90;;;;;;5073871;28;20020;-77
2020/12/11 04:13:50;;;;;;;17.05;11.35;;;6.10;99.90;;;;;;5072997;28;20037;-77
2020/12/11 04:16:16;;;;;;;16.20;10.20;;;6.10;99.90;;;;;;5074315;28;20035;-77
2020/12/11 04:18:42;;;;;;;16.55;11.18;;;6.00;99.90;;;;;;5072839;28;20025;-77
2020/12/11 04:21:15;;;;;;;15.43;10.75;;;6.00;99.90;;;;;;5073953;28;20021;-77
2020/12/11 04:23:43;;;;;;;15.35;11.02;;;6.00;99.90;;;;;;5054133;28;20044;-77
2020/12/11 04:26:09;;;;;;;15.10;11.35;;;6.00;99.90;;;;;;5053915;28;20029;-77
2020/12/11 04:28:35;;;;;;;15.15;10.63;;;6.00;99.90;;;;;;5054044;28;20036;-77
2020/12/11 04:31:01;;;;;;;18.48;11.32;;;6.00;99.90;;;;;;5055962;28;20024;-77
2020/12/11 04:33:26;;;;;;;15.63;10.05;;;6.00;99.90;;;;;;5073507;28;20044;-77
2020/12/11 04:35:52;;;;;;;13.90;10.43;;;5.90;99.90;;;;;;5074071;28;20372;-77
2020/12/11 04:38:18;;;;;;;17.67;10.80;;;5.90;99.90;;;;;;5073830;28;20024;-77
2020/12/11 04:40:44;;;;;;;14.80;10.25;;;5.80;99.90;;;;;;5091510;28;20048;-77
2020/12/11 04:43:11;;;;;;;16.65;10.45;;;5.80;99.90;;;;;;5075301;28;20034;-77
2020/12/11 04:45:40;;;;;;;16.23;10.73;;;5.80;99.90;;;;;;5075221;28;20123;-77
2020/12/11 04:48:10;;;;;;;17.17;10.65;;;5.80;99.90;;;;;;5093980;28;20020;-77
2020/12/11 04:50:36;;;;;;;15.52;10.25;;;5.70;99.90;;;;;;5093591;28;20032;-77
2020/12/11 04:53:03;;;;;;;15.25;9.63;;;5.80;99.90;;;;;;5093675;28;20107;-77
2020/12/11 04:55:34;;;;;;;16.77;10.30;;;5.70;99.90;;;;;;5093781;28;20107;-77
2020/12/11 04:58:04;;;;;;;16.23;10.57;;;5.70;99.90;;;;;;5093702;28;20028;-77
2020/12/11 05:00:30;;;;;;;14.13;10.10;;;5.70;99.90;;;;;;5075273;28;20076;-77
2020/12/11 05:03:00;;;;;;;13.70;9.77;;;5.70;99.90;;;;;;5093512;28;20650;-77
2020/12/11 05:05:25;;;;;;;17.13;11.27;;;5.80;99.90;;;;;;5093561;28;20093;-77
2020/12/11 05:07:51;;;;;;;14.98;10.35;;;5.80;99.90;;;;;;5093512;28;20099;-77
2020/12/11 05:10:17;;;;;;;14.93;10.20;;;5.80;99.90;;;;;;5093373;28;20494;-77
2020/12/11 05:12:42;;;;;;;14.75;9.93;;;5.90;99.90;;;;;;5075552;28;20028;-77
2020/12/11 05:15:12;;;;;;;15.98;9.82;;;5.90;99.90;;;;;;5093507;28;20035;-77
2020/12/11 05:17:40;;;;;;;16.67;10.13;;;5.80;99.90;;;;;;5093339;28;20526;-77
2020/12/11 05:20:07;;;;;;;12.77;9.70;;;5.60;99.90;;;;;;5093503;28;20050;-77
2020/12/11 05:22:36;;;;;;;16.65;10.52;;;5.60;99.90;;;;;;5093157;28;20368;-77
2020/12/11 05:25:04;;;;;;;15.07;9.52;;;5.60;99.90;;;;;;5093120;28;20433;-77
2020/12/11 05:27:35;;;;;;;16.00;10.13;;;5.50;99.90;;;;;;5075103;28;20028;-77
2020/12/11 05:30:13;;;;;;;14.70;9.80;;;5.40;99.90;;;;;;5093405;28;20027;-77
2020/12/11 05:32:44;;;;;;;15.85;10.02;;;5.40;99.90;;;;;;5068517;28;20706;-77
2020/12/11 05:35:18;;;;;;;15.98;10.30;;;5.30;99.90;;;;;;5093222;28;20019;-77
2020/12/11 05:37:46;;;;;;;15.27;10.63;;;5.40;99.90;;;;;;5093078;28;20020;-77
2020/12/11 05:40:38;;;;;;;14.73;9.93;;;5.40;99.90;;;;;;5093019;28;20076;-77
2020/12/11 05:43:15;;;;;;;17.30;9.75;;;5.30;99.90;;;;;;5092818;28;20109;-77
2020/12/11 05:45:55;;;;;;;14.02;9.65;;;5.40;99.90;;;;;;5092962;28;20030;-77
2020/12/11 05:48:24;;;;;;;13.88;9.23;;;5.40;99.90;;;;;;5092767;28;20568;-77
2020/12/11 05:50:53;;;;;;;12.63;8.65;;;5.40;99.90;;;;;;5092961;28;20016;-77
2020/12/11 05:53:19;;;;;;;11.73;8.43;;;5.30;99.90;;;;;;5092741;28;20032;-77
2020/12/11 05:55:46;;;;;;;12.30;8.48;;;5.30;99.90;;;;;;5092977;28;20106;-77
2020/12/11 05:58:12;;;;;;;13.23;8.77;;;5.20;99.90;;;;;;5077611;28;20557;-77
2020/12/11 06:00:46;;;;;;;10.85;7.68;;;5.20;99.90;;;;;;5096855;28;20028;-77
2020/12/11 06:03:12;;;;;;;13.68;7.75;;;5.20;99.90;;;;;;5097051;28;20052;-77
2020/12/11 06:05:39;;;;;;;10.65;7.28;;;5.20;99.90;;;;;;5096712;28;20028;-77
2020/12/11 06:08:10;;;;;;;12.00;7.88;;;5.20;99.90;;;;;;5096854;28;20388;-77
2020/12/11 06:10:38;;;;;;;12.00;7.68;;;5.20;99.90;;;;;;5096977;28;20107;-77
2020/12/11 06:13:08;;;;;;;13.68;8.48;;;5.20;99.90;;;;;;5096887;28;20048;-77
2020/12/11 06:15:44;;;;;;;13.95;8.23;;;5.20;99.90;;;;;;5078629;28;20028;-77
2020/12/11 06:18:20;;;;;;;9.00;6.85;;;5.20;99.90;;;;;;5078736;28;20032;-77
2020/12/11 06:20:47;;;;;;;8.88;6.60;;;5.20;99.90;;;;;;5078507;28;20063;-77
2020/12/11 06:23:28;;;;;;;9.23;6.82;;;5.20;99.90;;;;;;5096449;28;20056;-77
2020/12/11 06:26:03;;;;;;;11.25;6.63;;;5.20;99.90;;;;;;5096264;28;20417;-77
2020/12/11 06:28:35;;;;;;;8.45;6.10;;;5.20;99.90;;;;;;5096588;28;20051;-77
2020/12/11 06:31:01;;;;;;;7.15;6.03;;;5.20;99.90;;;;;;5075065;28;20078;-78
2020/12/11 06:33:32;;;;;;;9.35;6.50;;;5.10;99.90;;;;;;5093205;28;20032;-79
2020/12/11 06:35:59;;;;;;;6.90;5.78;;;5.10;99.90;;;;;;5096401;28;20024;-79
2020/12/11 06:38:41;;;;;;;7.78;6.40;;;5.00;99.90;;;;;;5096288;28;20067;-79
2020/12/11 06:41:07;;;;;;;12.75;9.48;;;5.00;99.90;;;;;;5078107;28;20036;-78
2020/12/11 06:43:39;;;;;;;8.88;6.85;;;5.00;99.90;;;;;;5077981;28;20030;-79
2020/12/11 06:46:25;;;;;;;;;;;4.90;99.90;;;;;;5078499;28;20024;-79
2020/12/11 06:49:13;;;;;;;6.22;5.38;;;5.00;99.90;;;;;;5095319;28;20310;-79
2020/12/11 06:51:45;;;;;;;12.00;6.53;;;5.00;99.90;;;;;;5077899;28;20056;-79
2020/12/11 06:54:20;;;;;;;11.18;6.80;;;5.10;99.90;;;;;;5077934;28;20032;-79
2020/12/11 06:57:05;;;;;;;10.35;5.95;;;5.20;99.90;;;;;;5077618;28;20179;-79
2020/12/11 06:59:33;;;;;;;9.00;5.82;;;5.10;99.90;;;;;;5094140;28;20038;-79
2020/12/11 07:02:02;;;;;;;10.02;7.43;;;5.10;99.90;;;;;;5095801;28;20463;-79
2020/12/11 07:04:37;;;;;;;7.78;5.70;;;5.20;99.90;;;;;;5095979;28;20051;-79
2020/12/11 07:07:03;;;;;;;9.95;6.72;;;5.20;99.90;;;;;;5095815;28;20035;-79
2020/12/11 07:09:29;;;;;;;9.93;6.35;;;5.20;99.90;;;;;;5095478;28;20020;-79
2020/12/11 07:11:56;;;;;;;9.00;6.75;;;5.20;99.90;;;;;;5095641;28;20020;-79
2020/12/11 07:14:26;;;;;;;9.15;6.68;;;5.20;99.90;;;;;;5095650;28;20027;-79
2020/12/11 07:16:52;;;;;;;8.27;6.50;;;5.20;99.90;;;;;;5094486;28;20028;-79
2020/12/11 07:19:17;;;;;;;7.88;6.40;;;5.20;99.90;;;;;;5077510;28;20111;-79
2020/12/11 07:21:46;;;;;;;10.43;7.20;;;5.30;99.90;;;;;;5077048;28;20039;-79
2020/12/11 07:24:13;;;;;;;10.25;7.68;;;5.20;99.90;;;;;;5077210;28;20027;-79
2020/12/11 07:26:39;;;;;;;10.43;6.53;;;5.30;99.90;;;;;;5077058;28;20036;-78
2020/12/11 07:29:16;;;;;;;7.82;6.50;;;5.30;99.90;;;;;;5095559;28;20027;-79
2020/12/11 07:31:46;;;;;;;9.82;7.38;;;5.30;99.90;;;;;;5088974;28;20028;-78
2020/12/11 07:34:16;;;;;;;13.07;8.10;;;5.30;99.90;;;;;;5086912;28;20111;-78
2020/12/11 07:36:46;;;;;;;9.75;7.18;;;5.40;99.90;;;;;;5067022;28;20543;-79
2020/12/11 07:39:16;;;;;;;12.30;7.90;;;5.40;99.90;;;;;;5087734;28;20499;-79
2020/12/11 07:41:46;;;;;;;12.07;8.05;;;5.40;99.90;;;;;;5073454;28;20572;-79
2020/12/11 07:44:23;;;;;;;13.45;8.00;;;5.40;99.90;;;;;;5062529;28;20605;-79
2020/12/11 07:46:56;;;;;;;12.27;7.72;;;5.40;99.90;;;;;;5083891;28;20070;-79
2020/12/11 07:49:34;;;;;;;13.05;7.18;;;5.40;99.90;;;;;;5074889;28;20020;-79
2020/12/11 07:51:59;;;;;;;11.00;7.95;;;5.40;99.90;;;;;;5089674;28;20441;-79
2020/12/11 07:54:37;;;;;;;11.48;8.30;;;5.40;99.90;;;;;;5094352;28;20051;-79
2020/12/11 07:57:18;;;;;;;12.95;7.82;;;5.50;99.90;;;;;;5085442;28;20085;-79
2020/12/11 08:00:06;;;;;;;10.77;8.07;;;5.40;99.90;;;;;;5086905;28;20028;-79
2020/12/11 08:02:34;;;;;;;13.85;9.32;;;5.50;99.90;;;;;;5088011;28;20070;-79
2020/12/11 08:05:03;;;;;;;14.77;9.20;;;5.50;99.90;;;;;;5091570;28;20031;-78
2020/12/11 08:07:33;;;;;;;15.02;9.00;;;5.50;99.90;;;;;;5074176;28;20028;-79
2020/12/11 08:10:13;;;;;;;13.32;8.38;;;5.60;99.90;;;;;;5071420;28;20519;-79
2020/12/11 08:12:42;;;;;;;12.80;9.20;;;5.60;99.90;;;;;;5081854;28;20077;-78
2020/12/11 08:15:09;;;;;;;13.43;8.40;;;5.60;99.90;;;;;;5085958;28;20016;-78
2020/12/11 08:17:36;;;;;;;16.27;10.05;;;5.70;99.90;;;;;;5078836;28;20587;-78
2020/12/11 08:20:07;;;;;;;15.60;8.63;;;5.80;99.90;;;;;;5074632;28;20044;-78
2020/12/11 08:22:35;;;;;;;12.55;8.60;;;5.80;99.90;;;;;;5058175;28;20177;-79
2020/12/11 08:25:17;;;;;;;14.18;8.88;;;5.90;99.90;;;;;;5085254;28;20518;-78
2020/12/11 08:27:42;;;;;;;13.93;9.02;;;5.90;99.90;;;;;;5077257;28;20035;-79
2020/12/11 08:30:16;;;;;;;14.65;9.82;;;5.90;99.90;;;;;;5063634;28;20028;-78
2020/12/11 08:32:44;;;;;;;14.68;9.02;;;6.00;99.90;;;;;;5084784;28;20035;-78
2020/12/11 08:35:18;;;;;;;17.13;10.20;;;6.00;99.90;;;;;;5089342;28;20039;-80
2020/12/11 08:37:57;;;;;;;13.88;8.90;;;6.00;99.90;;;;;;5079393;28;20035;-79
2020/12/11 08:40:27;;;;;;;14.32;9.80;;;6.00;99.90;;;;;;5083844;28;20048;-79
2020/12/11 08:45:42;;;;;;;15.82;9.43;;;6.10;99.90;;;;;;5089991;28;20483;-80
2020/12/11 08:50:42;;;;;;;13.52;10.02;;;6.20;99.90;;;;;;5090997;28;20025;-79
2020/12/11 08:53:10;;;;;;;16.52;11.02;;;6.20;99.90;;;;;;5082302;28;20016;-79
2020/12/11 08:55:38;;;;;;;15.43;10.73;;;6.20;99.90;;;;;;5089689;28;20509;-79
2020/12/11 08:58:03;;;;;;;15.88;9.80;;;6.30;99.90;;;;;;5080607;28;20115;-80
2020/12/11 09:00:29;;;;;;;16.10;10.80;;;6.30;99.90;;;;;;5072126;28;20115;-79
2020/12/11 09:02:55;;;;;;;17.95;11.73;;;6.30;99.90;;;;;;5081240;28;20020;-79
2020/12/11 09:05:24;;;;;;;17.17;10.50;;;6.40;99.90;;;;;;5088408;28;20112;-79
2020/12/11 09:07:51;;;;;;;15.60;11.05;;;6.40;99.90;;;;;;5066025;28;20025;-80
2020/12/11 09:10:18;;;;;;;16.30;10.40;;;6.40;99.90;;;;;;5060601;28;20064;-80
2020/12/11 09:12:46;;;;;;;17.10;11.68;;;6.50;99.90;;;;;;5082277;28;20020;-79
2020/12/11 09:15:37;;;;;;;16.83;11.23;;;6.50;99.90;;;;;;5085980;28;20426;-79
2020/12/11 09:18:03;;;;;;;18.02;12.10;;;6.60;99.90;;;;;;5058109;28;20036;-79
2020/12/11 09:20:30;;;;;;;20.73;11.25;;;6.70;99.90;;;;;;5090255;28;20093;-79
2020/12/11 09:22:55;;;;;;;18.88;11.48;;;6.80;99.90;;;;;;5069157;28;20032;-79
2020/12/11 09:25:21;;;;;;;16.92;11.68;;;6.80;99.90;;;;;;5056788;28;20012;-80
2020/12/11 09:27:47;;;;;;;19.05;11.95;;;6.90;99.90;;;;;;5088803;28;20020;-80
2020/12/11 09:30:27;;;;;;;21.63;13.15;;;7.00;99.90;;;;;;5065379;28;20064;-79
2020/12/11 09:35:29;;;;;;;17.85;12.40;;;7.10;99.90;;;;;;5081876;28;20051;-76
2020/12/11 09:37:57;;;;;;;20.92;12.27;;;7.20;99.90;;;;;;5066334;28;20028;-80
2020/12/11 09:41:09;;;;;;;22.52;13.60;;;7.30;99.90;;;;;;5083190;28;20518;-80
2020/12/11 09:46:24;;;;;;;23.35;13.38;;;7.40;99.90;;;;;;5079146;28;20431;-79
2020/12/11 09:48:54;;;;;;;23.25;13.60;;;7.40;99.90;;;;;;5063019;28;20044;-80
2020/12/11 09:56:24;;;;;;;29.15;14.20;;;7.50;99.90;;;;;;5081387;28;20552;-80
2020/12/11 09:58:53;;;;;;;22.33;14.07;;;7.50;99.90;;;;;;5078361;28;20034;-80
2020/12/11 10:01:30;;;;;;;23.15;13.50;;;7.50;99.90;;;;;;5054718;28;20546;-82
2020/12/11 10:03:56;;;;;;;20.55;13.82;;;7.50;99.90;;;;;;5076653;28;20043;-81
2020/12/11 10:06:26;;;;;;;24.38;14.55;;;7.60;99.90;;;;;;5075696;28;20298;-81
2020/12/11 10:08:52;;;;;;;22.85;14.05;;;7.60;99.90;;;;;;5066102;28;20055;-80
2020/12/11 10:11:20;;;;;;;21.92;14.40;;;7.70;99.90;;;;;;5080315;28;20028;-80
2020/12/11 10:13:49;;;;;;;24.30;14.02;;;7.80;99.90;;;;;;5085827;28;20537;-81
2020/12/11 10:16:16;;;;;;;27.15;13.48;;;7.80;99.90;;;;;;5058730;28;20051;-81
2020/12/11 10:18:42;;;;;;;19.65;13.25;;;7.80;99.90;;;;;;5087496;28;20036;-80
2020/12/11 10:21:10;;;;;;;22.25;13.10;;;7.80;99.90;;;;;;5078975;28;20077;-80
2020/12/11 10:23:36;;;;;;;22.52;13.50;;;7.90;99.90;;;;;;5086432;28;20047;-80
2020/12/11 10:26:02;;;;;;;25.08;14.55;;;7.90;99.90;;;;;;5081272;28;20025;-80
2020/12/11 10:28:28;;;;;;;25.65;15.35;;;7.90;99.90;;;;;;5076856;28;20028;-80
2020/12/11 10:30:53;;;;;;;27.63;14.43;;;7.90;99.90;;;;;;5079131;28;20545;-80
2020/12/11 10:33:19;;;;;;;22.08;13.43;;;7.90;99.90;;;;;;5085748;28;20027;-80
2020/12/11 10:35:45;;;;;;;26.15;13.32;;;7.90;99.90;;;;;;5085281;28;20016;-80
2020/12/11 10:38:10;;;;;;;22.13;14.23;;;8.00;99.90;;;;;;5083369;28;20476;-80
2020/12/11 10:40:36;;;;;;;22.50;13.93;;;8.00;99.90;;;;;;5087608;28;20478;-79
2020/12/11 10:43:02;;;;;;;23.42;13.80;;;8.00;99.90;;;;;;5082824;28;20016;-79
2020/12/11 10:45:27;;;;;;;20.58;14.60;;;8.10;99.90;;;;;;5068102;28;20032;-80
2020/12/11 10:47:53;;;;;;;24.23;14.02;;;8.10;99.90;;;;;;5091222;28;20020;-79
2020/12/11 10:50:19;;;;;;;20.92;14.02;;;8.10;99.90;;;;;;5092097;28;20028;-79
2020/12/11 10:52:44;;;;;;;21.98;12.60;;;8.20;99.90;;;;;;5082393;28;20032;-79
2020/12/11 10:55:10;;;;;;;19.38;12.52;;;8.20;99.90;;;;;;5070512;28;20028;-79
2020/12/11 10:57:36;;;;;;;22.35;12.23;;;8.20;99.90;;;;;;5072422;28;20472;-79
2020/12/11 11:00:02;;;;;;;19.13;10.93;;;8.20;99.90;;;;;;5088462;28;20028;-80
2020/12/11 11:02:28;;;;;;;19.63;10.60;;;8.20;99.90;;;;;;5090453;28;20021;-80
2020/12/11 11:04:54;;;;;;;30.48;12.98;;;8.30;99.90;;;;;;5084212;28;20111;-79
2020/12/11 11:07:24;;;;;;;27.15;13.70;;;8.30;99.90;;;;;;5082420;28;20024;-79
2020/12/11 11:12:59;;;;;;;27.55;12.70;;;8.30;99.90;;;;;;5027216;28;20091;-79
2020/12/11 11:18:06;;;;;;;14.73;10.68;;;8.30;99.90;;;;;;5090856;28;20032;-79
2020/12/11 11:26:22;;;;;;;16.73;10.43;;;8.40;99.90;;;;;;5086287;28;20119;-79
2020/12/11 11:28:58;;;;;;;18.95;11.63;;;8.40;99.90;;;;;;5073483;28;20387;-75
2020/12/11 11:31:24;;;;;;;18.70;11.68;;;8.40;99.90;;;;;;5091028;28;20093;-75
2020/12/11 11:33:49;;;;;;;13.60;10.57;;;8.40;99.90;;;;;;5075860;28;20463;-76
2020/12/11 11:36:15;;;;;;;17.25;11.45;;;8.30;99.90;;;;;;5092840;28;20498;-75
2020/12/11 11:38:41;;;;;;;16.30;11.05;;;8.40;99.90;;;;;;5085575;28;20127;-75
2020/12/11 11:41:07;;;;;;;22.05;11.00;;;8.40;99.90;;;;;;5092189;28;20024;-75
2020/12/11 11:46:17;;;;;;;20.50;11.45;;;8.40;99.90;;;;;;5083602;28;20066;-75
2020/12/11 11:48:44;;;;;;;20.58;13.18;;;8.40;99.90;;;;;;5085831;28;20020;-75
2020/12/11 11:51:19;;;;;;;21.17;12.63;;;8.40;99.90;;;;;;5080446;28;20337;-76
2020/12/11 11:53:45;;;;;;;15.10;10.95;;;8.40;99.90;;;;;;5084133;28;20107;-75
2020/12/11 11:56:11;;;;;;;16.27;10.68;;;8.40;99.90;;;;;;5084068;28;20564;-75
2020/12/11 11:58:37;;;;;;;23.30;12.48;;;8.50;99.90;;;;;;5074735;28;20582;-75
2020/12/11 12:01:03;;;;;;;18.13;11.63;;;8.50;99.90;;;;;;5081444;28;20024;-75
2020/12/11 12:03:30;;;;;;;23.67;12.38;;;8.50;99.90;;;;;;5073971;28;20024;-75
2020/12/11 12:05:58;;;;;;;19.52;12.00;;;8.50;99.90;;;;;;5084117;28;20078;-75
2020/12/11 12:08:24;;;;;;;17.75;12.25;;;8.50;99.90;;;;;;5089073;28;20785;-75
2020/12/11 12:10:50;;;;;;;21.98;13.10;;;8.50;99.90;;;;;;5085754;28;20107;-76
2020/12/11 12:13:19;;;;;;;28.65;13.70;;;8.50;99.90;;;;;;5078281;28;20051;-76
2020/12/11 12:15:45;;;;;;;20.65;13.68;;;8.60;99.90;;;;;;5088701;28;20376;-76
2020/12/11 12:18:13;;;;;;;24.35;13.82;;;8.60;99.90;;;;;;5053720;28;20036;-75
2020/12/11 12:28:53;;;;;;;22.33;13.55;;;8.70;99.90;;;;;;5084388;28;20106;-76
2020/12/11 12:31:23;;;;;;;30.95;14.23;;;8.70;99.90;;;;;;5063263;28;20026;-76
2020/12/11 12:34:17;;;;;;;23.73;14.63;;;8.70;99.90;;;;;;5069750;28;20917;-76
2020/12/11 12:44:26;;;;;;;26.77;16.23;;;8.70;99.90;;;;;;5076907;28;20035;-76
2020/12/11 12:46:51;;;;;;;27.00;15.85;;;8.60;99.90;;;;;;5092264;28;20031;-75
2020/12/11 12:49:17;;;;;;;27.92;15.82;;;8.60;99.90;;;;;;5073583;28;20023;-75
2020/12/11 12:51:42;;;;;;;35.42;17.08;;;8.60;99.90;;;;;;5068128;28;20108;-76
2020/12/11 12:54:11;;;;;;;27.17;16.33;;;8.70;99.90;;;;;;5078573;28;20414;-75
2020/12/11 12:59:11;;;;;;;27.88;16.60;;;8.70;99.90;;;;;;5083998;28;20110;-75
2020/12/11 13:02:01;;;;;;;25.13;15.13;;;8.70;99.90;;;;;;5088002;28;20020;-75
2020/12/11 13:07:03;;;;;;;24.20;15.70;;;8.70;99.90;;;;;;5085846;28;20475;-75
2020/12/11 13:09:32;;;;;;;24.70;14.65;;;8.70;99.90;;;;;;5062637;28;20031;-75
2020/12/11 13:11:58;;;;;;;30.40;15.55;;;8.70;99.90;;;;;;5080766;28;20020;-75
2020/12/11 13:14:24;;;;;;;25.42;15.57;;;8.60;99.90;;;;;;5081009;28;20553;-75
2020/12/11 13:16:50;;;;;;;28.73;15.82;;;8.70;99.90;;;;;;5075045;28;20032;-75
2020/12/11 13:19:18;;;;;;;29.00;16.65;;;8.60;99.90;;;;;;5070232;28;20035;-75
2020/12/11 13:22:20;;;;;;;30.17;15.75;;;8.60;99.90;;;;;;5055543;28;20095;-76
2020/12/11 13:27:31;;;;;;;33.47;17.83;;;8.60;99.90;;;;;;5082825;28;20047;-75
2020/12/11 13:29:58;;;;;;;26.73;17.85;;;8.60;99.90;;;;;;5067454;28;20074;-75
2020/12/11 13:32:27;;;;;;;27.77;17.38;;;8.60;99.90;;;;;;5073424;28;20104;-74
2020/12/11 13:34:55;;;;;;;14.27;10.00;;;8.60;99.90;;;;;;5069579;28;20081;-78
2020/12/11 13:37:28;;;;;;;31.67;16.80;;;9.00;99.90;;;;;;5083804;28;20029;-75
2020/12/11 13:39:55;;;;;;;27.50;16.35;;;8.90;99.90;;;;;;5077415;28;20451;-75
2020/12/11 13:42:21;;;;;;;25.30;15.93;;;8.80;99.90;;;;;;5070790;28;20448;-75